RYR7ME LIRZ-LICJ
Flight info
| Callsign | RYR7ME |
|---|---|
| Flight time | 0h 58m |
| Altitude | 19000 |
| Route | GITOD L865 GIKIN/N0452F330 DCT TURMO DCT RONAB/N0455F310 DCT GIANO |
| Aircraft | A320/M-SDE2FGHIJ1RWY/SB1 |
Departure
| Time | 2026-05-08 19:49 |
|---|---|
| Airport | Perugia San Francesco d'Assisi – Umbria International Airport (LIRZ) |
Arrival
| Time | 2026-05-08 20:47 |
|---|---|
| Airport | Falcone–Borsellino Airport (LICJ) |
| Time | Latitude | Longitude | Altitude | Speed | Heading |
|---|---|---|---|---|---|
| 2026-05-08 19:28 | 43.09576 | 12.50339 | 687 ft | 0 kts | 289° |
| 2026-05-08 19:44 | 43.09581 | 12.50334 | 686 ft | 2 kts | 338° |
| 2026-05-08 19:44 | 43.09596 | 12.50345 | 686 ft | 3 kts | 67° |
| 2026-05-08 19:44 | 43.09590 | 12.50406 | 686 ft | 8 kts | 115° |
| 2026-05-08 19:45 | 43.09537 | 12.50447 | 686 ft | 9 kts | 164° |
| 2026-05-08 19:45 | 43.09468 | 12.50480 | 686 ft | 11 kts | 160° |
| 2026-05-08 19:45 | 43.09391 | 12.50526 | 685 ft | 12 kts | 150° |
| 2026-05-08 19:45 | 43.09312 | 12.50592 | 684 ft | 13 kts | 148° |
| 2026-05-08 19:46 | 43.09227 | 12.50663 | 684 ft | 14 kts | 148° |
| 2026-05-08 19:46 | 43.09140 | 12.50742 | 683 ft | 15 kts | 141° |
| 2026-05-08 19:46 | 43.09036 | 12.51004 | 682 ft | 16 kts | 104° |
| 2026-05-08 19:47 | 43.09002 | 12.51105 | 682 ft | 9 kts | 157° |
| 2026-05-08 19:47 | 43.08927 | 12.51090 | 682 ft | 11 kts | 196° |
| 2026-05-08 19:47 | 43.08875 | 12.51056 | 681 ft | 4 kts | 179° |
| 2026-05-08 19:47 | 43.08872 | 12.51073 | 681 ft | 1 kts | 35° |
| 2026-05-08 19:48 | 43.08885 | 12.51076 | 681 ft | 0 kts | 15° |
| 2026-05-08 19:48 | 43.08889 | 12.51078 | 681 ft | 7 kts | 15° |
| 2026-05-08 19:48 | 43.09201 | 12.51189 | 684 ft | 83 kts | 14° |
| 2026-05-08 19:48 | 43.09983 | 12.51459 | 696 ft | 144 kts | 15° |
| 2026-05-08 19:49 | 43.10988 | 12.51809 | 1248 ft | 148 kts | 15° |
| 2026-05-08 19:49 | 43.11978 | 12.52149 | 1902 ft | 150 kts | 15° |
| 2026-05-08 19:49 | 43.12989 | 12.52488 | 2559 ft | 149 kts | 15° |
| 2026-05-08 19:49 | 43.14009 | 12.52621 | 3080 ft | 153 kts | 346° |
| 2026-05-08 19:50 | 43.14843 | 12.51712 | 3581 ft | 160 kts | 296° |
| 2026-05-08 19:50 | 43.14930 | 12.50206 | 4052 ft | 167 kts | 257° |
| 2026-05-08 19:50 | 43.14602 | 12.48621 | 4432 ft | 182 kts | 253° |
| 2026-05-08 19:50 | 43.14223 | 12.46888 | 4828 ft | 199 kts | 254° |
| 2026-05-08 19:51 | 43.13813 | 12.44943 | 5196 ft | 221 kts | 254° |
| 2026-05-08 19:51 | 43.13386 | 12.42839 | 5793 ft | 234 kts | 255° |
| 2026-05-08 19:51 | 43.12959 | 12.40689 | 6581 ft | 238 kts | 255° |
| 2026-05-08 19:51 | 43.12526 | 12.38507 | 7410 ft | 240 kts | 255° |
| 2026-05-08 19:52 | 43.12094 | 12.36327 | 8227 ft | 243 kts | 256° |
| 2026-05-08 19:52 | 43.11523 | 12.34158 | 9018 ft | 246 kts | 236° |
| 2026-05-08 19:52 | 43.10176 | 12.32669 | 9796 ft | 248 kts | 198° |
| 2026-05-08 19:52 | 43.08499 | 12.32220 | 10555 ft | 249 kts | 186° |
| 2026-05-08 19:53 | 43.06773 | 12.31987 | 11281 ft | 252 kts | 186° |
| 2026-05-08 19:53 | 43.05033 | 12.31686 | 12008 ft | 253 kts | 189° |
| 2026-05-08 19:53 | 43.03290 | 12.31289 | 12723 ft | 254 kts | 191° |
| 2026-05-08 19:53 | 43.01566 | 12.30836 | 13413 ft | 255 kts | 192° |
| 2026-05-08 19:54 | 42.99825 | 12.30348 | 14104 ft | 256 kts | 193° |
| 2026-05-08 19:54 | 42.98095 | 12.29740 | 14700 ft | 260 kts | 203° |
| 2026-05-08 19:54 | 42.96421 | 12.28662 | 15070 ft | 273 kts | 209° |
| 2026-05-08 19:54 | 42.94709 | 12.27406 | 15351 ft | 289 kts | 209° |
| 2026-05-08 19:55 | 42.92868 | 12.26063 | 15636 ft | 305 kts | 208° |
| 2026-05-08 19:55 | 42.90934 | 12.24690 | 15925 ft | 321 kts | 208° |
| 2026-05-08 19:55 | 42.88878 | 12.23259 | 16210 ft | 336 kts | 208° |
| 2026-05-08 19:55 | 42.86697 | 12.21756 | 16486 ft | 352 kts | 208° |
| 2026-05-08 19:56 | 42.84461 | 12.20228 | 16758 ft | 367 kts | 208° |
| 2026-05-08 19:56 | 42.82143 | 12.18649 | 17051 ft | 379 kts | 208° |
| 2026-05-08 19:56 | 42.79736 | 12.17014 | 17554 ft | 385 kts | 207° |
| 2026-05-08 19:56 | 42.77321 | 12.15377 | 18144 ft | 387 kts | 207° |
| 2026-05-08 19:57 | 42.74897 | 12.13736 | 18698 ft | 390 kts | 208° |
| 2026-05-08 19:57 | 42.72466 | 12.12094 | 19235 ft | 392 kts | 208° |
| 2026-05-08 19:57 | 42.70016 | 12.10439 | 19776 ft | 395 kts | 208° |
| 2026-05-08 19:57 | 42.67547 | 12.08771 | 20292 ft | 398 kts | 208° |
| 2026-05-08 19:58 | 42.65069 | 12.07107 | 20788 ft | 401 kts | 207° |
| 2026-05-08 19:58 | 42.62437 | 12.05686 | 21300 ft | 405 kts | 201° |
| 2026-05-08 19:58 | 42.59739 | 12.04747 | 22107 ft | 401 kts | 194° |
| 2026-05-08 19:58 | 42.56995 | 12.04242 | 22984 ft | 394 kts | 190° |
| 2026-05-08 19:59 | 42.54266 | 12.03883 | 23582 ft | 393 kts | 189° |
| 2026-05-08 19:59 | 42.51552 | 12.03543 | 24019 ft | 396 kts | 189° |
| 2026-05-08 19:59 | 42.48777 | 12.03199 | 24448 ft | 400 kts | 189° |
| 2026-05-08 19:59 | 42.45985 | 12.02851 | 24896 ft | 402 kts | 189° |
| 2026-05-08 20:00 | 42.43215 | 12.02505 | 25338 ft | 404 kts | 189° |
| 2026-05-08 20:00 | 42.40402 | 12.02153 | 25777 ft | 406 kts | 189° |
| 2026-05-08 20:00 | 42.37579 | 12.01800 | 26186 ft | 409 kts | 189° |
| 2026-05-08 20:00 | 42.34759 | 12.01447 | 26581 ft | 411 kts | 190° |
| 2026-05-08 20:01 | 42.31894 | 12.01090 | 26990 ft | 413 kts | 189° |
| 2026-05-08 20:01 | 42.28981 | 12.00727 | 27403 ft | 415 kts | 190° |
| 2026-05-08 20:01 | 42.26135 | 12.00373 | 27787 ft | 417 kts | 189° |
| 2026-05-08 20:01 | 42.23231 | 12.00011 | 28160 ft | 420 kts | 190° |
| 2026-05-08 20:02 | 42.20316 | 11.99648 | 28527 ft | 422 kts | 190° |
| 2026-05-08 20:02 | 42.17366 | 11.99281 | 28889 ft | 424 kts | 190° |
| 2026-05-08 20:02 | 42.14407 | 11.98911 | 29235 ft | 426 kts | 190° |
| 2026-05-08 20:02 | 42.11415 | 11.98538 | 29598 ft | 428 kts | 190° |
| 2026-05-08 20:03 | 42.08429 | 11.98167 | 29946 ft | 430 kts | 190° |
| 2026-05-08 20:03 | 42.05464 | 11.97798 | 30298 ft | 432 kts | 190° |
| 2026-05-08 20:03 | 42.02478 | 11.97427 | 30638 ft | 433 kts | 190° |
| 2026-05-08 20:03 | 41.99459 | 11.97054 | 30966 ft | 435 kts | 190° |
| 2026-05-08 20:04 | 41.96422 | 11.96677 | 31270 ft | 437 kts | 190° |
| 2026-05-08 20:04 | 41.93382 | 11.96301 | 31556 ft | 439 kts | 190° |
| 2026-05-08 20:04 | 41.90362 | 11.95930 | 31905 ft | 440 kts | 190° |
| 2026-05-08 20:04 | 41.87300 | 11.95554 | 32255 ft | 440 kts | 190° |
| 2026-05-08 20:05 | 41.84237 | 11.95177 | 32557 ft | 442 kts | 190° |
| 2026-05-08 20:05 | 41.81206 | 11.94805 | 32845 ft | 443 kts | 190° |
| 2026-05-08 20:05 | 41.78136 | 11.94427 | 33015 ft | 444 kts | 190° |
| 2026-05-08 20:05 | 41.75050 | 11.94048 | 33022 ft | 444 kts | 190° |
| 2026-05-08 20:06 | 41.68876 | 11.93287 | 33020 ft | 444 kts | 190° |
| 2026-05-08 20:06 | 41.62764 | 11.92541 | 33021 ft | 444 kts | 190° |
| 2026-05-08 20:07 | 41.56591 | 11.91786 | 33023 ft | 443 kts | 190° |
| 2026-05-08 20:07 | 41.50490 | 11.91043 | 33017 ft | 443 kts | 190° |
| 2026-05-08 20:08 | 41.44333 | 11.90293 | 33021 ft | 442 kts | 191° |
| 2026-05-08 20:08 | 41.38211 | 11.89549 | 33021 ft | 442 kts | 191° |
| 2026-05-08 20:09 | 41.32083 | 11.88805 | 33020 ft | 442 kts | 191° |
| 2026-05-08 20:09 | 41.25982 | 11.88065 | 33023 ft | 441 kts | 191° |
| 2026-05-08 20:10 | 41.19841 | 11.87322 | 33025 ft | 441 kts | 191° |
| 2026-05-08 20:10 | 41.13753 | 11.86589 | 33022 ft | 441 kts | 191° |
| 2026-05-08 20:11 | 41.07624 | 11.85851 | 33020 ft | 439 kts | 191° |
| 2026-05-08 20:11 | 41.01541 | 11.85118 | 33023 ft | 439 kts | 191° |
| 2026-05-08 20:12 | 40.95459 | 11.84387 | 33023 ft | 439 kts | 191° |
| 2026-05-08 20:12 | 40.89371 | 11.83664 | 33024 ft | 439 kts | 190° |
| 2026-05-08 20:13 | 40.83218 | 11.83450 | 33018 ft | 444 kts | 185° |
| 2026-05-08 20:13 | 40.77044 | 11.83809 | 33024 ft | 445 kts | 184° |
| 2026-05-08 20:14 | 40.70872 | 11.84177 | 33026 ft | 444 kts | 184° |
| 2026-05-08 20:14 | 40.64717 | 11.84540 | 33022 ft | 444 kts | 184° |
| 2026-05-08 20:15 | 40.58575 | 11.84906 | 33024 ft | 444 kts | 184° |
| 2026-05-08 20:15 | 40.52379 | 11.85271 | 33021 ft | 444 kts | 184° |
| 2026-05-08 20:16 | 40.46229 | 11.85633 | 33025 ft | 445 kts | 185° |
| 2026-05-08 20:16 | 40.40063 | 11.85997 | 33022 ft | 444 kts | 185° |
| 2026-05-08 20:17 | 40.33919 | 11.86359 | 33023 ft | 444 kts | 185° |
| 2026-05-08 20:17 | 40.27761 | 11.86722 | 33020 ft | 443 kts | 185° |
| 2026-05-08 20:18 | 40.21580 | 11.87084 | 33024 ft | 443 kts | 185° |
| 2026-05-08 20:18 | 40.15421 | 11.87443 | 33026 ft | 443 kts | 185° |
| 2026-05-08 20:19 | 40.09276 | 11.87804 | 33022 ft | 443 kts | 185° |
| 2026-05-08 20:19 | 40.03107 | 11.88161 | 33024 ft | 444 kts | 186° |
| 2026-05-08 20:20 | 39.96959 | 11.88520 | 33029 ft | 444 kts | 185° |
| 2026-05-08 20:20 | 39.90764 | 11.89358 | 33018 ft | 450 kts | 179° |
| 2026-05-08 20:21 | 39.84609 | 11.91115 | 33019 ft | 458 kts | 173° |
| 2026-05-08 20:21 | 39.78542 | 11.93822 | 33023 ft | 466 kts | 166° |
| 2026-05-08 20:22 | 39.72547 | 11.97191 | 33021 ft | 468 kts | 165° |
| 2026-05-08 20:22 | 39.66591 | 12.00549 | 32976 ft | 470 kts | 165° |
| 2026-05-08 20:23 | 39.63610 | 12.02226 | 32503 ft | 467 kts | 165° |
| 2026-05-08 20:23 | 39.60624 | 12.03903 | 31853 ft | 464 kts | 165° |
| 2026-05-08 20:23 | 39.57685 | 12.05550 | 31099 ft | 464 kts | 165° |
| 2026-05-08 20:23 | 39.54704 | 12.07217 | 30357 ft | 463 kts | 164° |
| 2026-05-08 20:24 | 39.51801 | 12.08839 | 29857 ft | 456 kts | 165° |
| 2026-05-08 20:24 | 39.48908 | 12.10461 | 29391 ft | 448 kts | 165° |
| 2026-05-08 20:24 | 39.46081 | 12.12042 | 28913 ft | 442 kts | 165° |
| 2026-05-08 20:24 | 39.43263 | 12.13613 | 28427 ft | 437 kts | 165° |
| 2026-05-08 20:25 | 39.40496 | 12.15155 | 27943 ft | 432 kts | 165° |
| 2026-05-08 20:25 | 39.37772 | 12.16670 | 27452 ft | 427 kts | 164° |
| 2026-05-08 20:25 | 39.35040 | 12.18188 | 26953 ft | 423 kts | 164° |
| 2026-05-08 20:25 | 39.32369 | 12.19671 | 26477 ft | 419 kts | 165° |
| 2026-05-08 20:26 | 39.29689 | 12.21158 | 25992 ft | 415 kts | 164° |
| 2026-05-08 20:26 | 39.27065 | 12.22612 | 25521 ft | 411 kts | 164° |
| 2026-05-08 20:26 | 39.24440 | 12.24068 | 25046 ft | 407 kts | 164° |
| 2026-05-08 20:26 | 39.21847 | 12.25504 | 24570 ft | 403 kts | 164° |
| 2026-05-08 20:27 | 39.19310 | 12.26907 | 24110 ft | 400 kts | 164° |
| 2026-05-08 20:27 | 39.16742 | 12.28326 | 23639 ft | 397 kts | 164° |
| 2026-05-08 20:27 | 39.14233 | 12.29711 | 23173 ft | 394 kts | 164° |
| 2026-05-08 20:27 | 39.11708 | 12.31105 | 22696 ft | 392 kts | 164° |
| 2026-05-08 20:28 | 39.09228 | 12.32471 | 22233 ft | 390 kts | 164° |
| 2026-05-08 20:28 | 39.06746 | 12.33838 | 21762 ft | 388 kts | 163° |
| 2026-05-08 20:28 | 39.04284 | 12.35195 | 21293 ft | 386 kts | 164° |
| 2026-05-08 20:28 | 39.01803 | 12.36560 | 20817 ft | 385 kts | 164° |
| 2026-05-08 20:29 | 38.99364 | 12.37900 | 20356 ft | 384 kts | 164° |
| 2026-05-08 20:29 | 38.96909 | 12.39250 | 19896 ft | 383 kts | 164° |
| 2026-05-08 20:29 | 38.94453 | 12.40598 | 19426 ft | 382 kts | 163° |
| 2026-05-08 20:29 | 38.92036 | 12.41923 | 18957 ft | 381 kts | 163° |
| 2026-05-08 20:30 | 38.89590 | 12.43280 | 18482 ft | 382 kts | 161° |
| 2026-05-08 20:30 | 38.87321 | 12.45168 | 17979 ft | 393 kts | 143° |
| 2026-05-08 20:30 | 38.85537 | 12.47817 | 17490 ft | 401 kts | 126° |
| 2026-05-08 20:30 | 38.84176 | 12.50950 | 17018 ft | 402 kts | 120° |
| 2026-05-08 20:31 | 38.82917 | 12.54110 | 16546 ft | 402 kts | 119° |
| 2026-05-08 20:31 | 38.81650 | 12.57308 | 16069 ft | 400 kts | 120° |
| 2026-05-08 20:31 | 38.80371 | 12.60492 | 15589 ft | 399 kts | 120° |
| 2026-05-08 20:31 | 38.79106 | 12.63606 | 15110 ft | 398 kts | 120° |
| 2026-05-08 20:32 | 38.77804 | 12.66783 | 14623 ft | 396 kts | 120° |
| 2026-05-08 20:32 | 38.76524 | 12.69891 | 14147 ft | 395 kts | 120° |
| 2026-05-08 20:32 | 38.75250 | 12.72968 | 13668 ft | 393 kts | 121° |
| 2026-05-08 20:32 | 38.73962 | 12.76075 | 13194 ft | 391 kts | 121° |
| 2026-05-08 20:33 | 38.72701 | 12.79112 | 12753 ft | 388 kts | 120° |
| 2026-05-08 20:33 | 38.71447 | 12.82128 | 12499 ft | 379 kts | 120° |
| 2026-05-08 20:33 | 38.70237 | 12.85043 | 12257 ft | 370 kts | 120° |
| 2026-05-08 20:33 | 38.69035 | 12.87938 | 11992 ft | 362 kts | 120° |
| 2026-05-08 20:34 | 38.67865 | 12.90746 | 11691 ft | 357 kts | 120° |
| 2026-05-08 20:34 | 38.66704 | 12.93523 | 11392 ft | 351 kts | 120° |
| 2026-05-08 20:34 | 38.64444 | 12.98935 | 10808 ft | 341 kts | 120° |
| 2026-05-08 20:35 | 38.63337 | 13.01583 | 10527 ft | 336 kts | 120° |
| 2026-05-08 20:35 | 38.62233 | 13.04220 | 10247 ft | 331 kts | 120° |
| 2026-05-08 20:35 | 38.61161 | 13.06782 | 9982 ft | 326 kts | 120° |
| 2026-05-08 20:35 | 38.60096 | 13.09324 | 9795 ft | 319 kts | 120° |
| 2026-05-08 20:36 | 38.59068 | 13.11773 | 9670 ft | 310 kts | 120° |
| 2026-05-08 20:36 | 38.58060 | 13.14176 | 9548 ft | 308 kts | 120° |
| 2026-05-08 20:36 | 38.57056 | 13.16563 | 9428 ft | 307 kts | 120° |
| 2026-05-08 20:36 | 38.56037 | 13.18985 | 9304 ft | 306 kts | 120° |
| 2026-05-08 20:37 | 38.54967 | 13.21295 | 9207 ft | 304 kts | 126° |
| 2026-05-08 20:37 | 38.53706 | 13.23467 | 9088 ft | 302 kts | 133° |
| 2026-05-08 20:37 | 38.52293 | 13.25428 | 8961 ft | 300 kts | 137° |
| 2026-05-08 20:37 | 38.50835 | 13.27304 | 8843 ft | 298 kts | 138° |
| 2026-05-08 20:38 | 38.49372 | 13.29166 | 8721 ft | 298 kts | 137° |
| 2026-05-08 20:38 | 38.47902 | 13.31046 | 8601 ft | 297 kts | 137° |
| 2026-05-08 20:38 | 38.46439 | 13.32927 | 8472 ft | 297 kts | 137° |
| 2026-05-08 20:38 | 38.45004 | 13.34777 | 8349 ft | 297 kts | 137° |
| 2026-05-08 20:39 | 38.43545 | 13.36659 | 8220 ft | 296 kts | 137° |
| 2026-05-08 20:39 | 38.42110 | 13.38509 | 8101 ft | 295 kts | 137° |
| 2026-05-08 20:39 | 38.40673 | 13.40361 | 7984 ft | 294 kts | 137° |
| 2026-05-08 20:39 | 38.39109 | 13.42040 | 7868 ft | 288 kts | 154° |
| 2026-05-08 20:40 | 38.37285 | 13.42993 | 7787 ft | 283 kts | 166° |
| 2026-05-08 20:40 | 38.35429 | 13.43731 | 7647 ft | 275 kts | 167° |
| 2026-05-08 20:40 | 38.33611 | 13.44435 | 7174 ft | 273 kts | 166° |
| 2026-05-08 20:40 | 38.31815 | 13.45137 | 6684 ft | 269 kts | 168° |
| 2026-05-08 20:41 | 38.30014 | 13.45227 | 6170 ft | 256 kts | 200° |
| 2026-05-08 20:41 | 38.28573 | 13.44025 | 5631 ft | 245 kts | 236° |
| 2026-05-08 20:41 | 38.27948 | 13.42091 | 5078 ft | 240 kts | 258° |
| 2026-05-08 20:41 | 38.27559 | 13.40027 | 4503 ft | 241 kts | 256° |
| 2026-05-08 20:42 | 38.27092 | 13.37991 | 3970 ft | 240 kts | 254° |
| 2026-05-08 20:42 | 38.26559 | 13.35985 | 3651 ft | 231 kts | 252° |
| 2026-05-08 20:42 | 38.26001 | 13.34121 | 3506 ft | 219 kts | 250° |
| 2026-05-08 20:42 | 38.25433 | 13.32368 | 3399 ft | 212 kts | 249° |
| 2026-05-08 20:43 | 38.24849 | 13.30626 | 3132 ft | 214 kts | 249° |
| 2026-05-08 20:43 | 38.24269 | 13.28920 | 2848 ft | 205 kts | 248° |
| 2026-05-08 20:43 | 38.23701 | 13.27252 | 2587 ft | 196 kts | 249° |
| 2026-05-08 20:43 | 38.23174 | 13.25700 | 2397 ft | 184 kts | 249° |
| 2026-05-08 20:44 | 38.22672 | 13.24214 | 2123 ft | 177 kts | 249° |
| 2026-05-08 20:44 | 38.22194 | 13.22800 | 1887 ft | 169 kts | 249° |
| 2026-05-08 20:44 | 38.21740 | 13.21457 | 1651 ft | 161 kts | 249° |
| 2026-05-08 20:44 | 38.21310 | 13.20182 | 1428 ft | 153 kts | 249° |
| 2026-05-08 20:45 | 38.20904 | 13.18977 | 1231 ft | 140 kts | 249° |
| 2026-05-08 20:45 | 38.20526 | 13.17855 | 1038 ft | 130 kts | 249° |
| 2026-05-08 20:45 | 38.20157 | 13.16785 | 883 ft | 128 kts | 246° |
| 2026-05-08 20:45 | 38.19796 | 13.15752 | 734 ft | 128 kts | 249° |
| 2026-05-08 20:46 | 38.19454 | 13.14695 | 578 ft | 128 kts | 248° |
| 2026-05-08 20:46 | 38.19103 | 13.13647 | 393 ft | 127 kts | 248° |
| 2026-05-08 20:46 | 38.18757 | 13.12591 | 211 ft | 126 kts | 248° |
| 2026-05-08 20:46 | 38.18413 | 13.11558 | 81 ft | 122 kts | 246° |
| 2026-05-08 20:47 | 38.18171 | 13.10842 | 86 ft | 53 kts | 247° |
| 2026-05-08 20:47 | 38.18047 | 13.10479 | 83 ft | 37 kts | 246° |
| 2026-05-08 20:47 | 38.18011 | 13.10268 | 79 ft | 20 kts | 278° |
| 2026-05-08 20:47 | 38.18030 | 13.10097 | 72 ft | 9 kts | 276° |
| 2026-05-08 20:48 | 38.18037 | 13.10022 | 67 ft | 5 kts | 277° |
| 2026-05-08 20:48 | 38.18044 | 13.09952 | 64 ft | 9 kts | 277° |
| 2026-05-08 20:48 | 38.18084 | 13.09866 | 60 ft | 14 kts | 336° |
| 2026-05-08 20:48 | 38.18139 | 13.09909 | 60 ft | 11 kts | 68° |
| 2026-05-08 20:49 | 38.18170 | 13.10000 | 62 ft | 10 kts | 66° |
| 2026-05-08 20:49 | 38.18200 | 13.10087 | 64 ft | 10 kts | 67° |
| 2026-05-08 20:49 | 38.18229 | 13.10175 | 66 ft | 10 kts | 67° |
| 2026-05-08 20:49 | 38.18259 | 13.10265 | 67 ft | 11 kts | 66° |
| 2026-05-08 20:50 | 38.18306 | 13.10327 | 66 ft | 9 kts | 356° |
| 2026-05-08 20:50 | 38.18354 | 13.10320 | 64 ft | 5 kts | 47° |
| 2026-05-08 20:50 | 38.18373 | 13.10364 | 64 ft | 4 kts | 67° |
| 2026-05-08 20:50 | 38.18383 | 13.10391 | 65 ft | 1 kts | 67° |
| 2026-05-08 20:51 | 38.18386 | 13.10403 | 65 ft | 0 kts | 67° |